Time;durP1;ratioP1;P1;durP2;ratioP2;P2;SDS_P1;SDS_P2;PMS_P1;PMS_P2;Temp;Humidity;BMP_temperature;BMP_pressure;BME280_temperature;BME280_humidity;BME280_pressure;Samples;Min_cycle;Max_cycle;Signal;HPM_P1;HPM_P2
2022/11/18 08:14:48;;;;;;;18.95;5.85;;;;;;;;;;4860237;29;20049;-87
2022/11/18 08:17:14;;;;;;;17.77;6.25;;;;;;;;;;4841275;29;20613;-86
2022/11/18 08:19:41;;;;;;;14.68;5.20;;;;;;;;;;4840944;29;20177;-86
2022/11/18 08:22:07;;;;;;;16.75;6.72;;;;;;;;;;4841386;29;20817;-88
2022/11/18 08:24:36;;;;;;;15.43;5.55;;;;;;;;;;4843223;29;20111;-87
2022/11/18 08:27:06;;;;;;;12.88;5.65;;;;;;;;;;4842965;29;20089;-85
2022/11/18 08:29:32;;;;;;;16.58;7.90;;;;;;;;;;4842319;29;20055;-85
2022/11/18 08:31:58;;;;;;;17.80;6.97;;;;;;;;;;4840517;29;21004;-87
2022/11/18 08:34:25;;;;;;;13.88;5.40;;;;;;;;;;4845705;29;20056;-88
2022/11/18 08:36:51;;;;;;;13.48;6.43;;;;;;;;;;4839015;29;20046;-85
2022/11/18 08:39:17;;;;;;;12.57;6.53;;;;;;;;;;4845316;29;20063;-86
2022/11/18 08:41:45;;;;;;;22.20;9.23;;;;;;;;;;4841587;29;20059;-88
2022/11/18 08:44:13;;;;;;;19.98;6.95;;;;;;;;;;4841427;29;20062;-88
2022/11/18 08:46:40;;;;;;;14.48;6.20;;;;;;;;;;4821832;29;20836;-88
2022/11/18 08:49:07;;;;;;;18.33;7.25;;;;;;;;;;4837158;29;20060;-86
2022/11/18 08:51:34;;;;;;;16.90;9.25;;;;;;;;;;4839340;29;20112;-86
2022/11/18 08:54:01;;;;;;;16.42;7.65;;;;;;;;;;4839613;29;20057;-88
2022/11/18 08:56:27;;;;;;;27.23;11.52;;;;;;;;;;4839791;29;20118;-89
2022/11/18 08:58:54;;;;;;;23.38;8.77;;;;;;;;;;4837307;29;20057;-89
2022/11/18 09:01:21;;;;;;;16.83;7.18;;;;;;;;;;4838909;29;20086;-85
2022/11/18 09:03:48;;;;;;;36.33;14.30;;;;;;;;;;4821133;29;20863;-89
2022/11/18 09:06:23;;;;;;;35.35;15.77;;;;;;;;;;4846130;29;20053;-84
2022/11/18 09:08:50;;;;;;;27.98;12.32;;;;;;;;;;4829848;29;20062;-83
2022/11/18 09:11:18;;;;;;;21.90;9.82;;;;;;;;;;4831652;29;20058;-80
2022/11/18 09:13:45;;;;;;;14.18;6.22;;;;;;;;;;4830113;29;20138;-83
2022/11/18 09:16:32;;;;;;;14.15;6.30;;;;;;;;;;4838776;29;20062;-84
2022/11/18 09:18:59;;;;;;;17.08;5.95;;;;;;;;;;4850457;29;20054;-86
2022/11/18 09:21:45;;;;;;;12.77;5.72;;;;;;;;;;4857556;29;20058;-86
2022/11/18 09:24:11;;;;;;;14.05;6.00;;;;;;;;;;4859201;29;20077;-84
2022/11/18 09:26:38;;;;;;;18.02;6.40;;;;;;;;;;4863804;29;20596;-82
2022/11/18 09:29:04;;;;;;;11.30;4.72;;;;;;;;;;4863001;29;20042;-85
2022/11/18 09:31:30;;;;;;;11.52;4.95;;;;;;;;;;4849345;29;20596;-83
2022/11/18 09:33:58;;;;;;;9.57;4.38;;;;;;;;;;4862307;29;20071;-86
2022/11/18 09:36:27;;;;;;;13.55;5.05;;;;;;;;;;4865706;29;21035;-83
2022/11/18 09:38:53;;;;;;;12.82;5.07;;;;;;;;;;4863880;29;20493;-88
2022/11/18 09:41:38;;;;;;;9.65;4.60;;;;;;;;;;4864112;29;20053;-89
2022/11/18 09:44:17;;;;;;;12.27;4.28;;;;;;;;;;4861900;29;20058;-87
2022/11/18 09:46:47;;;;;;;10.30;4.78;;;;;;;;;;4858474;29;20054;-88
2022/11/18 09:49:15;;;;;;;10.13;4.85;;;;;;;;;;4843432;29;20569;-86
2022/11/18 09:51:46;;;;;;;12.13;4.35;;;;;;;;;;4842829;29;20066;-86
2022/11/18 09:54:19;;;;;;;10.48;3.88;;;;;;;;;;4842136;29;20058;-87
2022/11/18 09:56:47;;;;;;;8.88;4.00;;;;;;;;;;4854958;29;20054;-85
2022/11/18 09:59:16;;;;;;;10.95;4.20;;;;;;;;;;4863945;29;20081;-88
2022/11/18 10:01:42;;;;;;;7.60;3.83;;;;;;;;;;4863996;29;20046;-84
2022/11/18 10:04:16;;;;;;;9.75;4.22;;;;;;;;;;4845837;29;20059;-85
2022/11/18 10:06:44;;;;;;;9.10;4.00;;;;;;;;;;4846415;29;20059;-86
2022/11/18 10:09:19;;;;;;;8.02;4.20;;;;;;;;;;4857935;29;20042;-83
2022/11/18 10:11:49;;;;;;;7.25;3.95;;;;;;;;;;4862118;29;20049;-83
2022/11/18 10:14:37;;;;;;;12.63;4.25;;;;;;;;;;4861610;29;20057;-85
2022/11/18 10:17:15;;;;;;;12.88;4.00;;;;;;;;;;4863028;29;20049;-86
2022/11/18 10:19:49;;;;;;;9.80;4.13;;;;;;;;;;4850236;29;20140;-84
2022/11/18 10:22:22;;;;;;;8.98;4.00;;;;;;;;;;4857206;29;20054;-86
2022/11/18 10:24:59;;;;;;;11.15;4.22;;;;;;;;;;4846434;29;20064;-84
2022/11/18 10:27:33;;;;;;;8.18;3.95;;;;;;;;;;4865567;29;20583;-85
2022/11/18 10:30:00;;;;;;;8.13;3.65;;;;;;;;;;4869417;29;20042;-82
2022/11/18 10:32:26;;;;;;;11.90;4.25;;;;;;;;;;4863616;29;20054;-83
2022/11/18 10:34:54;;;;;;;10.60;3.95;;;;;;;;;;4862298;29;20046;-87
2022/11/18 10:37:28;;;;;;;10.70;4.05;;;;;;;;;;4863443;29;20530;-85
2022/11/18 10:40:22;;;;;;;12.52;4.90;;;;;;;;;;4867811;29;20056;-81
2022/11/18 10:42:49;;;;;;;17.83;7.85;;;;;;;;;;4864540;29;20109;-85
2022/11/18 10:45:22;;;;;;;14.88;7.80;;;;;;;;;;4862092;29;20046;-84
2022/11/18 10:47:56;;;;;;;9.18;4.90;;;;;;;;;;4863254;29;20058;-85
2022/11/18 10:50:30;;;;;;;10.32;5.47;;;;;;;;;;4861307;29;20035;-82
2022/11/18 10:52:56;;;;;;;13.50;4.43;;;;;;;;;;4862131;29;20100;-81
2022/11/18 10:55:24;;;;;;;8.57;4.50;;;;;;;;;;4856520;29;20058;-82
2022/11/18 10:58:02;;;;;;;11.07;4.20;;;;;;;;;;4858038;29;20084;-83
2022/11/18 11:00:33;;;;;;;14.80;3.80;;;;;;;;;;4855931;29;20056;-86
2022/11/18 11:02:59;;;;;;;9.57;4.10;;;;;;;;;;4849124;29;20425;-82
2022/11/18 11:05:26;;;;;;;11.88;5.05;;;;;;;;;;4861407;29;20193;-82
2022/11/18 11:08:16;;;;;;;8.65;3.53;;;;;;;;;;4863314;29;20050;-82
2022/11/18 11:11:02;;;;;;;10.20;3.78;;;;;;;;;;4860335;29;20088;-80
2022/11/18 11:13:30;;;;;;;11.80;4.10;;;;;;;;;;4868007;29;20061;-83
2022/11/18 11:15:59;;;;;;;14.05;4.05;;;;;;;;;;4875738;29;20058;-82
2022/11/18 11:18:40;;;;;;;12.50;5.43;;;;;;;;;;4860089;29;20121;-83
2022/11/18 11:21:14;;;;;;;11.20;4.18;;;;;;;;;;4865517;29;20046;-85
2022/11/18 11:23:40;;;;;;;9.55;4.03;;;;;;;;;;4865542;29;20117;-82
2022/11/18 11:26:07;;;;;;;10.75;3.72;;;;;;;;;;4867519;29;21033;-82
2022/11/18 11:29:05;;;;;;;11.77;4.00;;;;;;;;;;4864583;29;20066;-84
2022/11/18 11:31:42;;;;;;;10.38;3.70;;;;;;;;;;4873957;29;20041;-83
2022/11/18 11:34:27;;;;;;;13.68;3.90;;;;;;;;;;4847771;29;20075;-83
2022/11/18 11:37:06;;;;;;;9.23;3.95;;;;;;;;;;4862592;29;20224;-85
2022/11/18 11:39:50;;;;;;;14.30;4.30;;;;;;;;;;4860511;29;20054;-84
2022/11/18 11:42:40;;;;;;;14.30;3.40;;;;;;;;;;4866804;29;20056;-85
2022/11/18 11:45:16;;;;;;;9.32;3.63;;;;;;;;;;4864512;29;20056;-84
2022/11/18 11:47:45;;;;;;;12.57;3.53;;;;;;;;;;4871847;29;20291;-85
2022/11/18 11:50:18;;;;;;;10.27;3.10;;;;;;;;;;4875997;29;20049;-84
2022/11/18 11:52:48;;;;;;;11.32;3.38;;;;;;;;;;4869259;29;20038;-83
2022/11/18 11:55:15;;;;;;;;;;;;;;;;;;4871219;29;20074;-85
2022/11/18 11:57:44;;;;;;;10.07;3.25;;;;;;;;;;4857956;29;45469;-84
2022/11/18 12:00:15;;;;;;;8.45;3.15;;;;;;;;;;4854090;29;20143;-85
2022/11/18 12:03:00;;;;;;;13.70;4.00;;;;;;;;;;4855938;29;20502;-84
2022/11/18 12:05:32;;;;;;;12.32;3.78;;;;;;;;;;4867023;29;20110;-84
2022/11/18 12:08:00;;;;;;;10.52;3.88;;;;;;;;;;4861387;29;20062;-84
2022/11/18 12:10:39;;;;;;;9.38;3.95;;;;;;;;;;4849518;29;20058;-83
2022/11/18 12:13:12;;;;;;;7.88;3.58;;;;;;;;;;4855907;29;20062;-83
2022/11/18 12:15:47;;;;;;;9.65;4.72;;;;;;;;;;4855409;29;20060;-83
2022/11/18 12:18:23;;;;;;;9.00;3.97;;;;;;;;;;4855147;29;20065;-84
2022/11/18 12:20:50;;;;;;;12.35;4.20;;;;;;;;;;4851620;29;20117;-84
2022/11/18 12:23:17;;;;;;;10.82;4.13;;;;;;;;;;4857578;29;20972;-84
2022/11/18 12:25:46;;;;;;;7.93;3.80;;;;;;;;;;4862652;29;20068;-83
2022/11/18 12:28:22;;;;;;;8.50;3.78;;;;;;;;;;4870451;29;20068;-83
2022/11/18 12:30:49;;;;;;;10.07;4.10;;;;;;;;;;4868572;29;20057;-83
2022/11/18 12:33:16;;;;;;;10.43;4.55;;;;;;;;;;4856011;29;20174;-84
2022/11/18 12:35:47;;;;;;;9.82;4.70;;;;;;;;;;4864789;29;20050;-86
2022/11/18 12:38:30;;;;;;;8.48;4.75;;;;;;;;;;4867215;29;20057;-83
2022/11/18 12:40:56;;;;;;;8.93;4.28;;;;;;;;;;4863422;29;20582;-83
2022/11/18 12:43:47;;;;;;;10.27;5.07;;;;;;;;;;4858127;29;20060;-86
2022/11/18 12:46:26;;;;;;;14.05;5.20;;;;;;;;;;4865665;29;20141;-85
2022/11/18 12:48:52;;;;;;;10.55;5.10;;;;;;;;;;4858612;29;20139;-83
2022/11/18 12:51:23;;;;;;;13.75;4.97;;;;;;;;;;4861337;29;20144;-84
2022/11/18 12:53:50;;;;;;;11.73;4.80;;;;;;;;;;4856144;29;21184;-84
2022/11/18 12:56:16;;;;;;;11.80;4.97;;;;;;;;;;4854254;29;20042;-83
2022/11/18 12:58:44;;;;;;;12.52;4.88;;;;;;;;;;4858156;29;20062;-83
2022/11/18 13:01:11;;;;;;;12.27;5.60;;;;;;;;;;4856565;29;20064;-82
2022/11/18 13:03:38;;;;;;;11.98;5.15;;;;;;;;;;4860794;29;20058;-83
2022/11/18 13:06:06;;;;;;;10.60;5.00;;;;;;;;;;4856018;29;20053;-84
2022/11/18 13:08:32;;;;;;;12.45;5.10;;;;;;;;;;4857004;29;20062;-83
2022/11/18 13:19:32;;;;;;;11.95;5.00;;;;;;;;;;4859631;29;20061;-83
2022/11/18 13:24:50;;;;;;;14.85;5.60;;;;;;;;;;4859749;29;20066;-84
2022/11/18 13:27:31;;;;;;;12.95;6.15;;;;;;;;;;4855652;29;20122;-83
2022/11/18 13:30:08;;;;;;;12.35;6.30;;;;;;;;;;4846826;29;20054;-84
2022/11/18 13:32:35;;;;;;;11.93;5.90;;;;;;;;;;4864841;29;20045;-83
2022/11/18 13:35:17;;;;;;;13.57;6.15;;;;;;;;;;4859795;29;20058;-83
2022/11/18 13:37:52;;;;;;;15.23;6.07;;;;;;;;;;4854190;29;20065;-83
2022/11/18 13:40:19;;;;;;;12.90;6.25;;;;;;;;;;4852627;29;20062;-84
2022/11/18 13:42:46;;;;;;;13.07;5.65;;;;;;;;;;4855105;29;20157;-83
2022/11/18 13:45:12;;;;;;;12.32;6.07;;;;;;;;;;4851592;29;20066;-81
2022/11/18 13:47:42;;;;;;;11.40;5.80;;;;;;;;;;4851214;29;20062;-83
2022/11/18 13:50:26;;;;;;;11.45;5.97;;;;;;;;;;4844601;29;20062;-84
2022/11/18 13:53:05;;;;;;;11.73;6.00;;;;;;;;;;4838715;29;20050;-83
2022/11/18 13:55:42;;;;;;;16.42;6.40;;;;;;;;;;4855233;29;20061;-82
2022/11/18 13:58:18;;;;;;;12.65;5.40;;;;;;;;;;4855008;29;20057;-83
2022/11/18 14:00:55;;;;;;;10.55;5.18;;;;;;;;;;4854611;29;20061;-83
2022/11/18 14:03:26;;;;;;;11.18;4.65;;;;;;;;;;4838432;29;20059;-85
2022/11/18 14:05:53;;;;;;;12.57;4.95;;;;;;;;;;4851385;29;20057;-83
2022/11/18 14:08:29;;;;;;;15.38;6.60;;;;;;;;;;4853659;29;20062;-83
2022/11/18 14:10:56;;;;;;;11.13;5.85;;;;;;;;;;4854529;29;20061;-84
2022/11/18 14:13:22;;;;;;;11.43;5.28;;;;;;;;;;4853786;29;20504;-83
2022/11/18 14:15:49;;;;;;;10.15;5.20;;;;;;;;;;4852824;29;20065;-84
2022/11/18 14:18:18;;;;;;;12.43;6.20;;;;;;;;;;4834689;29;20108;-83
2022/11/18 14:20:49;;;;;;;12.82;5.57;;;;;;;;;;4846428;29;20065;-85
2022/11/18 14:23:16;;;;;;;12.95;6.15;;;;;;;;;;4839573;29;20062;-83
2022/11/18 14:25:43;;;;;;;11.85;5.85;;;;;;;;;;4836890;29;20064;-84
2022/11/18 14:28:22;;;;;;;12.57;5.72;;;;;;;;;;4834944;29;20058;-83
2022/11/18 14:31:09;;;;;;;14.90;6.40;;;;;;;;;;4838941;29;20065;-84
2022/11/18 14:33:36;;;;;;;14.00;5.38;;;;;;;;;;4842247;29;20108;-83
2022/11/18 14:36:10;;;;;;;13.52;5.80;;;;;;;;;;4840680;29;20141;-83
2022/11/18 14:38:42;;;;;;;12.95;6.07;;;;;;;;;;4820398;29;20115;-82
2022/11/18 14:41:47;;;;;;;15.13;6.90;;;;;;;;;;4823652;29;20050;-84
2022/11/18 14:44:13;;;;;;;13.25;6.43;;;;;;;;;;4845170;29;21084;-82
2022/11/18 14:46:41;;;;;;;11.02;6.32;;;;;;;;;;4842107;29;20058;-84
2022/11/18 14:49:15;;;;;;;16.80;6.53;;;;;;;;;;4829991;29;20058;-83
2022/11/18 14:51:42;;;;;;;12.32;6.32;;;;;;;;;;4842307;29;20062;-82
2022/11/18 14:54:16;;;;;;;12.32;6.07;;;;;;;;;;4835709;29;20550;-83
2022/11/18 14:56:53;;;;;;;17.05;6.57;;;;;;;;;;4839692;29;20058;-81
2022/11/18 14:59:19;;;;;;;11.98;6.07;;;;;;;;;;4843109;29;20054;-83
2022/11/18 15:01:46;;;;;;;17.83;6.63;;;;;;;;;;4833929;29;20066;-79
2022/11/18 15:04:13;;;;;;;14.50;6.07;;;;;;;;;;4842321;29;20054;-83
2022/11/18 15:06:39;;;;;;;13.55;6.32;;;;;;;;;;4837275;29;20063;-82
2022/11/18 15:09:08;;;;;;;15.00;6.70;;;;;;;;;;4837535;29;20060;-85
2022/11/18 15:11:35;;;;;;;17.38;6.55;;;;;;;;;;4836110;29;20145;-85
2022/11/18 15:14:02;;;;;;;14.95;5.70;;;;;;;;;;4839004;29;20063;-82
2022/11/18 15:16:29;;;;;;;16.45;6.40;;;;;;;;;;4841625;29;20069;-84
2022/11/18 15:18:57;;;;;;;14.07;5.90;;;;;;;;;;4853451;29;20058;-82
2022/11/18 15:21:25;;;;;;;13.90;6.50;;;;;;;;;;4854570;29;20139;-84
2022/11/18 15:23:52;;;;;;;15.50;6.65;;;;;;;;;;4861338;29;20061;-83
2022/11/18 15:26:22;;;;;;;10.82;5.97;;;;;;;;;;4855146;29;20050;-84
2022/11/18 15:28:49;;;;;;;;;;;;;;;;;;4853443;29;20056;-82
2022/11/18 15:31:15;;;;;;;13.82;6.30;;;;;;;;;;4857002;29;45848;-82
2022/11/18 15:33:42;;;;;;;16.73;6.88;;;;;;;;;;4851816;29;20049;-80
2022/11/18 15:36:12;;;;;;;11.95;6.47;;;;;;;;;;4851909;29;20532;-85
2022/11/18 15:38:39;;;;;;;17.60;7.22;;;;;;;;;;4853187;29;20062;-83
2022/11/18 15:41:06;;;;;;;13.60;6.93;;;;;;;;;;4857365;29;20046;-81
2022/11/18 15:43:32;;;;;;;15.23;7.93;;;;;;;;;;4853307;29;20072;-81
2022/11/18 15:45:58;;;;;;;22.13;7.80;;;;;;;;;;4856582;29;20058;-82
2022/11/18 15:48:25;;;;;;;16.73;7.20;;;;;;;;;;4854755;29;20061;-85
2022/11/18 15:50:51;;;;;;;18.30;7.95;;;;;;;;;;4856872;29;20057;-83
2022/11/18 15:53:19;;;;;;;24.40;7.65;;;;;;;;;;4851945;29;20065;-83
2022/11/18 15:55:45;;;;;;;14.73;7.30;;;;;;;;;;4853474;29;20220;-82
2022/11/18 15:58:12;;;;;;;20.00;8.50;;;;;;;;;;4850531;29;20057;-82
2022/11/18 16:00:38;;;;;;;17.98;7.85;;;;;;;;;;4849236;29;20494;-84
2022/11/18 16:03:04;;;;;;;18.63;7.55;;;;;;;;;;4860550;29;20069;-83
2022/11/18 16:05:31;;;;;;;17.42;8.15;;;;;;;;;;4863802;29;20057;-82
2022/11/18 16:07:57;;;;;;;18.58;7.95;;;;;;;;;;4847390;29;20090;-83
2022/11/18 16:13:08;;;;;;;21.20;8.30;;;;;;;;;;4854674;29;20058;-84
2022/11/18 16:15:46;;;;;;;20.85;12.07;;;;;;;;;;4855481;29;20065;-84
2022/11/18 16:18:14;;;;;;;25.40;13.43;;;;;;;;;;4853074;29;20117;-82
2022/11/18 16:20:40;;;;;;;24.13;14.38;;;;;;;;;;4854464;29;20064;-82
2022/11/18 16:23:06;;;;;;;18.67;10.27;;;;;;;;;;4855926;29;20065;-81
2022/11/18 16:25:33;;;;;;;17.77;9.57;;;;;;;;;;4858660;29;20062;-80
2022/11/18 16:27:59;;;;;;;21.05;8.70;;;;;;;;;;4844166;29;20073;-81
2022/11/18 16:33:17;;;;;;;20.25;8.18;;;;;;;;;;4850904;29;20800;-81
2022/11/18 16:35:47;;;;;;;20.13;8.32;;;;;;;;;;4851921;29;20065;-81
2022/11/18 16:38:13;;;;;;;17.17;8.68;;;;;;;;;;4856364;29;20808;-82
2022/11/18 16:40:40;;;;;;;18.85;8.48;;;;;;;;;;4855108;29;20056;-82
2022/11/18 16:43:06;;;;;;;20.42;9.20;;;;;;;;;;4835378;29;20050;-82
2022/11/18 16:45:33;;;;;;;15.05;8.65;;;;;;;;;;4854398;29;20159;-83
2022/11/18 16:47:59;;;;;;;15.15;8.65;;;;;;;;;;4853563;29;20068;-83
2022/11/18 16:50:25;;;;;;;21.15;8.80;;;;;;;;;;4854384;29;20058;-83
2022/11/18 16:52:52;;;;;;;18.98;8.82;;;;;;;;;;4849542;29;20174;-81
2022/11/18 16:55:18;;;;;;;20.02;10.30;;;;;;;;;;4849995;29;20685;-82
2022/11/18 16:57:44;;;;;;;21.70;10.98;;;;;;;;;;4849614;29;20058;-82
2022/11/18 17:00:11;;;;;;;20.88;10.50;;;;;;;;;;4860491;29;20145;-81
2022/11/18 17:02:38;;;;;;;18.65;9.00;;;;;;;;;;4854512;29;20054;-80
2022/11/18 17:05:04;;;;;;;19.35;8.57;;;;;;;;;;4851446;29;20058;-80
2022/11/18 17:07:31;;;;;;;21.48;9.23;;;;;;;;;;4854923;29;20177;-79
2022/11/18 17:10:04;;;;;;;18.00;8.65;;;;;;;;;;4854188;29;20060;-80
2022/11/18 17:12:30;;;;;;;22.92;10.43;;;;;;;;;;4854493;29;20054;-80
2022/11/18 17:14:56;;;;;;;23.48;9.88;;;;;;;;;;4854243;29;20058;-81
2022/11/18 17:17:22;;;;;;;20.42;10.10;;;;;;;;;;4836481;29;20066;-81
2022/11/18 17:19:49;;;;;;;19.90;9.82;;;;;;;;;;4856741;29;20066;-80
2022/11/18 17:22:16;;;;;;;23.80;9.43;;;;;;;;;;4856422;29;20231;-80
2022/11/18 17:24:42;;;;;;;23.75;10.45;;;;;;;;;;4855585;29;20050;-79
2022/11/18 17:27:08;;;;;;;24.40;10.05;;;;;;;;;;4849258;29;20066;-79
2022/11/18 17:29:35;;;;;;;21.15;10.02;;;;;;;;;;4852356;29;20420;-79
2022/11/18 17:32:01;;;;;;;24.92;10.07;;;;;;;;;;4840325;29;20069;-80
2022/11/18 17:34:27;;;;;;;19.02;10.15;;;;;;;;;;4859414;29;20056;-80
2022/11/18 17:36:54;;;;;;;21.73;10.25;;;;;;;;;;4859863;29;20058;-80
2022/11/18 17:39:20;;;;;;;17.73;9.13;;;;;;;;;;4863501;29;20081;-79
2022/11/18 17:44:31;;;;;;;20.40;10.77;;;;;;;;;;4838023;29;20073;-79
2022/11/18 17:46:58;;;;;;;26.52;10.57;;;;;;;;;;4845425;29;20069;-79
2022/11/18 17:49:24;;;;;;;18.80;10.68;;;;;;;;;;4836456;29;20067;-79
2022/11/18 17:51:50;;;;;;;24.83;11.45;;;;;;;;;;4850882;29;20042;-80
2022/11/18 17:54:17;;;;;;;24.40;12.18;;;;;;;;;;4855325;29;20115;-79
2022/11/18 17:56:44;;;;;;;25.00;12.52;;;;;;;;;;4853270;29;20089;-79
2022/11/18 17:59:12;;;;;;;22.85;11.68;;;;;;;;;;4854191;29;20181;-79
2022/11/18 18:01:39;;;;;;;27.17;12.60;;;;;;;;;;4851509;29;20524;-80
2022/11/18 18:04:05;;;;;;;31.65;13.35;;;;;;;;;;4836700;29;20070;-80
2022/11/18 18:06:32;;;;;;;23.85;13.27;;;;;;;;;;4855240;29;20056;-80
2022/11/18 18:08:58;;;;;;;29.27;14.30;;;;;;;;;;4840130;29;20062;-79
2022/11/18 18:11:25;;;;;;;31.92;13.73;;;;;;;;;;4837645;29;20533;-80
2022/11/18 18:16:38;;;;;;;32.15;13.98;;;;;;;;;;4853123;29;20100;-80
2022/11/18 18:19:05;;;;;;;33.55;14.52;;;;;;;;;;4854957;29;20076;-81
2022/11/18 18:21:31;;;;;;;27.67;14.98;;;;;;;;;;4836676;29;20062;-80
2022/11/18 18:23:58;;;;;;;28.13;12.57;;;;;;;;;;4852319;29;20089;-81
2022/11/18 18:26:24;;;;;;;24.98;11.40;;;;;;;;;;4850681;29;20157;-80
2022/11/18 18:28:57;;;;;;;21.85;11.73;;;;;;;;;;4853241;29;20062;-80
2022/11/18 18:31:23;;;;;;;23.83;10.85;;;;;;;;;;4854903;29;20058;-80
2022/11/18 18:33:52;;;;;;;22.23;11.45;;;;;;;;;;4833831;29;20847;-80
2022/11/18 18:36:19;;;;;;;31.38;12.32;;;;;;;;;;4853796;29;20053;-80
2022/11/18 18:38:48;;;;;;;22.60;11.75;;;;;;;;;;4853498;29;20121;-79
2022/11/18 18:41:19;;;;;;;26.90;12.25;;;;;;;;;;4852412;29;20053;-80
2022/11/18 18:43:46;;;;;;;;;;;;;;;;;;4854040;29;20064;-79
2022/11/18 18:46:32;;;;;;;32.33;12.13;;;;;;;;;;4849568;29;47289;-82
2022/11/18 18:49:07;;;;;;;22.08;12.15;;;;;;;;;;4853359;29;20138;-79
2022/11/18 18:51:38;;;;;;;28.15;12.43;;;;;;;;;;4852522;29;20619;-80
2022/11/18 18:54:12;;;;;;;25.98;12.77;;;;;;;;;;4847260;29;20062;-81
2022/11/18 18:56:40;;;;;;;33.05;13.30;;;;;;;;;;4837448;29;20058;-80
2022/11/18 18:59:07;;;;;;;26.60;12.20;;;;;;;;;;4853983;29;20054;-79
2022/11/18 19:01:37;;;;;;;24.58;12.00;;;;;;;;;;4848239;29;20062;-80
2022/11/18 19:04:18;;;;;;;25.33;12.43;;;;;;;;;;4851301;29;20085;-79
2022/11/18 19:06:47;;;;;;;25.27;12.13;;;;;;;;;;4856876;29;20536;-79
2022/11/18 19:09:24;;;;;;;28.05;12.60;;;;;;;;;;4830624;29;20148;-79
2022/11/18 19:14:36;;;;;;;24.98;12.60;;;;;;;;;;4849234;29;20065;-79
2022/11/18 19:17:02;;;;;;;26.88;12.52;;;;;;;;;;4857480;29;20064;-79
2022/11/18 19:22:22;;;;;;;26.30;11.27;;;;;;;;;;4853376;29;20513;-79
2022/11/18 19:24:49;;;;;;;33.70;11.32;;;;;;;;;;4844380;29;20055;-79
2022/11/18 19:27:17;;;;;;;26.42;11.93;;;;;;;;;;4856959;29;20042;-78
2022/11/18 19:29:43;;;;;;;26.98;11.57;;;;;;;;;;4857135;29;20651;-79
2022/11/18 19:32:10;;;;;;;26.23;11.27;;;;;;;;;;4852106;29;20059;-78
2022/11/18 19:34:36;;;;;;;25.55;11.20;;;;;;;;;;4855765;29;20847;-78
2022/11/18 19:37:02;;;;;;;33.30;12.38;;;;;;;;;;4856620;29;20061;-79
2022/11/18 19:39:29;;;;;;;33.53;12.20;;;;;;;;;;4854810;29;20133;-79
2022/11/18 19:41:55;;;;;;;32.92;12.80;;;;;;;;;;4851050;29;20112;-78
2022/11/18 19:44:22;;;;;;;32.65;12.77;;;;;;;;;;4860134;29;20121;-80
2022/11/18 19:46:48;;;;;;;29.23;11.95;;;;;;;;;;4857633;29;20082;-78
2022/11/18 19:49:15;;;;;;;32.67;12.40;;;;;;;;;;4851570;29;20054;-79
2022/11/18 19:51:42;;;;;;;29.63;13.07;;;;;;;;;;4862543;29;20102;-79
2022/11/18 19:54:08;;;;;;;33.83;12.90;;;;;;;;;;4853620;29;20065;-79
2022/11/18 19:56:34;;;;;;;32.60;12.18;;;;;;;;;;4856010;29;20060;-80
2022/11/18 19:59:01;;;;;;;32.83;13.07;;;;;;;;;;4848136;29;20096;-80
2022/11/18 20:01:27;;;;;;;32.97;12.70;;;;;;;;;;4829968;29;20058;-79
2022/11/18 20:03:56;;;;;;;33.15;13.95;;;;;;;;;;4856522;29;20095;-79
2022/11/18 20:06:23;;;;;;;35.35;13.93;;;;;;;;;;4854530;29;20069;-79
2022/11/18 20:08:50;;;;;;;41.92;14.18;;;;;;;;;;4856682;29;20069;-82
2022/11/18 20:11:18;;;;;;;32.95;14.00;;;;;;;;;;4858405;29;20062;-80
2022/11/18 20:13:44;;;;;;;35.92;14.27;;;;;;;;;;4857450;29;20085;-80
2022/11/18 20:16:16;;;;;;;38.42;15.68;;;;;;;;;;4840262;29;20085;-79
2022/11/18 20:18:43;;;;;;;36.20;14.73;;;;;;;;;;4853651;29;20540;-79
2022/11/18 20:21:14;;;;;;;38.35;15.15;;;;;;;;;;4855762;29;20066;-79
2022/11/18 20:23:40;;;;;;;35.67;14.18;;;;;;;;;;4841097;29;20521;-79
2022/11/18 20:26:08;;;;;;;36.15;14.63;;;;;;;;;;4866864;29;20041;-79
2022/11/18 20:28:37;;;;;;;41.20;14.95;;;;;;;;;;4853853;29;20057;-81
2022/11/18 20:31:08;;;;;;;40.28;13.43;;;;;;;;;;4841596;29;20834;-79
2022/11/18 20:33:34;;;;;;;;;;;;;;;;;;4852907;29;20062;-80
2022/11/18 20:36:08;;;;;;;30.48;12.55;;;;;;;;;;4857109;29;43566;-81
2022/11/18 20:38:34;;;;;;;35.75;13.52;;;;;;;;;;4861598;29;20117;-80
2022/11/18 20:41:01;;;;;;;33.20;13.68;;;;;;;;;;4858092;29;20057;-79
2022/11/18 20:43:28;;;;;;;38.05;13.60;;;;;;;;;;4855070;29;21346;-80
2022/11/18 20:45:59;;;;;;;31.13;12.88;;;;;;;;;;4854642;29;20058;-80
2022/11/18 20:48:26;;;;;;;38.38;14.00;;;;;;;;;;4866462;29;20117;-79
2022/11/18 20:50:52;;;;;;;35.03;13.02;;;;;;;;;;4855072;29;21153;-81
2022/11/18 20:53:19;;;;;;;33.33;13.25;;;;;;;;;;4857070;29;20519;-80
2022/11/18 20:55:48;;;;;;;34.40;11.70;;;;;;;;;;4855276;29;20076;-79
2022/11/18 20:58:15;;;;;;;30.35;11.57;;;;;;;;;;4857973;29;20057;-80
2022/11/18 21:00:42;;;;;;;26.85;11.05;;;;;;;;;;4855850;29;20084;-80
2022/11/18 21:03:11;;;;;;;24.05;10.88;;;;;;;;;;4866026;29;20145;-80
2022/11/18 21:05:38;;;;;;;28.42;11.65;;;;;;;;;;4869056;29;20073;-80
2022/11/18 21:08:04;;;;;;;24.58;10.55;;;;;;;;;;4854687;29;20062;-79
2022/11/18 21:10:32;;;;;;;23.33;10.45;;;;;;;;;;4854513;29;20652;-79
2022/11/18 21:15:43;;;;;;;26.90;11.05;;;;;;;;;;4854119;29;20133;-80
2022/11/18 21:18:09;;;;;;;23.73;10.45;;;;;;;;;;4860094;29;20081;-80
2022/11/18 21:23:22;;;;;;;25.98;10.52;;;;;;;;;;4858953;29;21663;-79
2022/11/18 21:25:49;;;;;;;27.08;11.27;;;;;;;;;;4868117;29;20551;-80
2022/11/18 21:28:15;;;;;;;23.90;10.48;;;;;;;;;;4878753;29;20095;-80
2022/11/18 21:30:41;;;;;;;27.08;10.55;;;;;;;;;;4878610;29;20066;-80
2022/11/18 21:33:08;;;;;;;27.98;11.57;;;;;;;;;;4858456;29;20851;-79
2022/11/18 21:35:35;;;;;;;24.13;10.65;;;;;;;;;;4851566;29;20045;-80
2022/11/18 21:38:02;;;;;;;27.30;10.75;;;;;;;;;;4853842;29;20080;-80
2022/11/18 21:40:29;;;;;;;26.70;11.32;;;;;;;;;;4855245;29;20058;-79
2022/11/18 21:42:56;;;;;;;27.60;10.85;;;;;;;;;;4839399;29;20061;-80
2022/11/18 21:45:22;;;;;;;20.95;10.48;;;;;;;;;;4851548;29;20057;-81
2022/11/18 21:47:48;;;;;;;22.35;10.07;;;;;;;;;;4848044;29;20098;-79
2022/11/18 21:50:15;;;;;;;20.25;9.48;;;;;;;;;;4854448;29;20088;-80
2022/11/18 21:52:41;;;;;;;24.13;10.32;;;;;;;;;;4854036;29;20258;-80
2022/11/18 21:55:07;;;;;;;24.23;9.77;;;;;;;;;;4855029;29;20061;-79
2022/11/18 21:57:34;;;;;;;21.88;10.10;;;;;;;;;;4848393;29;20836;-80
2022/11/18 22:00:00;;;;;;;19.48;8.55;;;;;;;;;;4850022;29;20058;-80
2022/11/18 22:02:26;;;;;;;20.23;9.48;;;;;;;;;;4855720;29;20062;-80
2022/11/18 22:04:53;;;;;;;19.88;9.40;;;;;;;;;;4855191;29;20079;-81
2022/11/18 22:07:20;;;;;;;24.40;10.40;;;;;;;;;;4853728;29;20433;-81
2022/11/18 22:09:46;;;;;;;20.38;9.43;;;;;;;;;;4857468;29;20069;-79
2022/11/18 22:12:12;;;;;;;24.35;9.70;;;;;;;;;;4853663;29;20093;-80
2022/11/18 22:14:40;;;;;;;25.63;11.02;;;;;;;;;;4852012;29;20069;-81
2022/11/18 22:17:06;;;;;;;22.73;9.60;;;;;;;;;;4855006;29;20080;-80
2022/11/18 22:19:32;;;;;;;23.15;10.02;;;;;;;;;;4855557;29;20057;-81
2022/11/18 22:21:59;;;;;;;20.35;9.80;;;;;;;;;;4854990;29;20521;-79
2022/11/18 22:24:25;;;;;;;27.27;11.23;;;;;;;;;;4846859;29;20069;-80
2022/11/18 22:26:52;;;;;;;24.42;10.23;;;;;;;;;;4850177;29;20618;-80
2022/11/18 22:29:18;;;;;;;23.38;10.48;;;;;;;;;;4853476;29;20085;-80
2022/11/18 22:31:45;;;;;;;26.10;11.20;;;;;;;;;;4849093;29;20734;-79
2022/11/18 22:34:11;;;;;;;26.90;11.85;;;;;;;;;;4864198;29;20067;-79
2022/11/18 22:36:38;;;;;;;27.98;11.93;;;;;;;;;;4852998;29;20058;-79
2022/11/18 22:39:04;;;;;;;25.33;12.05;;;;;;;;;;4853258;29;20083;-79
2022/11/18 22:44:16;;;;;;;25.02;11.18;;;;;;;;;;4855743;29;20069;-79
2022/11/18 22:46:43;;;;;;;29.45;12.43;;;;;;;;;;4852148;29;20058;-78
2022/11/18 22:49:10;;;;;;;25.98;11.07;;;;;;;;;;4849185;29;20073;-79
2022/11/18 22:51:37;;;;;;;26.65;11.80;;;;;;;;;;4870999;29;20146;-79
2022/11/18 22:54:04;;;;;;;25.88;11.45;;;;;;;;;;4849179;29;20050;-79
2022/11/18 22:56:52;;;;;;;25.38;11.30;;;;;;;;;;4839816;29;20751;-79
2022/11/18 22:59:18;;;;;;;26.95;12.75;;;;;;;;;;4857934;29;20342;-79
2022/11/18 23:01:45;;;;;;;27.13;11.63;;;;;;;;;;4858992;29;20065;-80
2022/11/18 23:04:11;;;;;;;31.38;12.05;;;;;;;;;;4865533;29;20058;-78
2022/11/18 23:06:37;;;;;;;25.38;11.40;;;;;;;;;;4845675;29;20814;-79
2022/11/18 23:09:04;;;;;;;27.63;11.38;;;;;;;;;;4850200;29;20152;-80
2022/11/18 23:14:15;;;;;;;30.45;12.63;;;;;;;;;;4857010;29;20061;-79
2022/11/18 23:16:41;;;;;;;26.17;10.90;;;;;;;;;;4853818;29;20064;-80
2022/11/18 23:19:12;;;;;;;22.80;10.85;;;;;;;;;;4855911;29;20103;-80
2022/11/18 23:21:39;;;;;;;25.63;11.50;;;;;;;;;;4853530;29;20141;-79
2022/11/18 23:24:06;;;;;;;26.35;11.38;;;;;;;;;;4851113;29;21292;-79
2022/11/18 23:26:32;;;;;;;29.88;11.68;;;;;;;;;;4867091;29;20058;-79
2022/11/18 23:28:59;;;;;;;25.98;11.43;;;;;;;;;;4853840;29;20099;-79
2022/11/18 23:31:26;;;;;;;26.27;12.27;;;;;;;;;;4859399;29;20054;-79